Time;durP1;ratioP1;P1;durP2;ratioP2;P2;SDS_P1;SDS_P2;PMS_P1;PMS_P2;Temp;Humidity;BMP_temperature;BMP_pressure;BME280_temperature;BME280_humidity;BME280_pressure;Samples;Min_cycle;Max_cycle;Signal;HPM_P1;HPM_P2
2021/11/04 00:00:14;;;;;;;6.75;2.70;;;;;;;3.68;100.00;101502.91;5020702;28;20037;-85
2021/11/04 00:02:40;;;;;;;9.95;2.38;;;;;;;3.56;100.00;101493.16;5021136;28;20029;-88
2021/11/04 00:05:07;;;;;;;8.68;2.40;;;;;;;3.55;100.00;101510.91;5055052;28;20287;-86
2021/11/04 00:07:33;;;;;;;9.10;2.45;;;;;;;3.40;100.00;101491.59;5053610;28;20032;-87
2021/11/04 00:09:59;;;;;;;10.20;2.63;;;;;;;3.34;100.00;101496.53;5053747;28;20033;-86
2021/11/04 00:12:25;;;;;;;9.70;1.95;;;;;;;3.44;100.00;101519.69;5037180;28;20490;-89
2021/11/04 00:14:51;;;;;;;13.30;2.22;;;;;;;3.36;100.00;101503.44;5053440;28;20028;-86
2021/11/04 00:17:17;;;;;;;8.73;2.22;;;;;;;3.42;100.00;101520.75;5020857;28;20489;-88
2021/11/04 00:19:43;;;;;;;7.78;2.17;;;;;;;3.32;100.00;101509.91;5036969;28;20040;-88
2021/11/04 00:22:10;;;;;;;9.27;1.95;;;;;;;3.37;100.00;101509.59;5020836;28;20052;-87
2021/11/04 00:24:36;;;;;;;4.40;1.58;;;;;;;3.46;100.00;101519.56;5020715;28;20067;-87
2021/11/04 00:27:02;;;;;;;10.88;1.95;;;;;;;3.52;100.00;101508.50;5036695;28;20459;-88
2021/11/04 00:29:27;;;;;;;2.75;1.30;;;;;;;3.67;100.00;101515.31;5020463;28;20114;-89
2021/11/04 00:31:53;;;;;;;10.43;2.22;;;;;;;3.89;100.00;101527.03;5036604;28;20475;-88
2021/11/04 00:34:19;;;;;;;8.00;2.17;;;;;;;3.98;100.00;101523.72;5020090;28;20377;-90
2021/11/04 00:36:45;;;;;;;5.93;1.75;;;;;;;3.96;100.00;101514.97;5020418;28;20072;-87
2021/11/04 00:39:11;;;;;;;8.32;2.38;;;;;;;3.96;100.00;101520.31;5037315;28;20037;-87
2021/11/04 00:41:37;;;;;;;13.10;2.33;;;;;;;4.03;100.00;101534.88;5020304;28;20039;-88
2021/11/04 00:44:03;;;;;;;4.57;1.90;;;;;;;4.01;100.00;101541.25;5037226;28;20033;-88
2021/11/04 00:46:32;;;;;;;10.55;3.30;;;;;;;4.01;100.00;101541.25;5021215;28;20138;-87
2021/11/04 00:48:58;;;;;;;7.47;1.85;;;;;;;3.92;100.00;101525.03;5020312;28;20037;-90
2021/11/04 00:51:23;;;;;;;9.88;2.00;;;;;;;4.00;100.00;101535.09;5021474;28;20044;-88
2021/11/04 00:53:50;;;;;;;9.23;1.75;;;;;;;4.08;100.00;101540.69;5054643;28;20367;-89
2021/11/04 00:56:16;;;;;;;15.48;2.50;;;;;;;4.06;100.00;101531.13;5037643;28;20511;-87
2021/11/04 00:58:42;;;;;;;9.13;1.92;;;;;;;4.12;100.00;101533.31;5020657;28;20056;-88
2021/11/04 01:01:08;;;;;;;6.38;1.70;;;;;;;4.18;100.00;101538.16;5052470;28;20061;-89
2021/11/04 01:03:33;;;;;;;4.03;2.00;;;;;;;4.08;100.00;101535.38;5020184;28;20053;-88
2021/11/04 01:06:00;;;;;;;4.38;2.00;;;;;;;4.01;100.00;101531.47;5036483;28;20139;-86
2021/11/04 01:08:25;;;;;;;9.68;2.30;;;;;;;3.89;100.00;101527.91;5053099;28;20467;-89
2021/11/04 01:10:51;;;;;;;8.05;2.08;;;;;;;3.69;100.00;101526.72;5053128;28;20039;-87
2021/11/04 01:13:17;;;;;;;9.55;2.58;;;;;;;3.53;100.00;101526.13;5036289;28;20483;-87
2021/11/04 01:15:42;;;;;;;14.32;2.10;;;;;;;3.36;100.00;101539.78;5052907;28;20029;-87
2021/11/04 01:18:09;;;;;;;8.20;1.15;;;;;;;3.38;100.00;101530.72;5036530;28;20466;-87
2021/11/04 01:20:34;;;;;;;8.98;1.38;;;;;;;3.47;100.00;101519.44;5052996;28;20111;-86
2021/11/04 01:23:00;;;;;;;6.75;1.85;;;;;;;3.62;100.00;101528.09;5019868;28;20543;-87
2021/11/04 01:25:26;;;;;;;6.13;1.40;;;;;;;3.78;100.00;101543.78;5036372;28;20024;-89
2021/11/04 01:27:51;;;;;;;5.32;2.25;;;;;;;3.73;100.00;101524.66;5053003;28;20028;-85
2021/11/04 01:30:17;;;;;;;5.22;2.38;;;;;;;3.83;100.00;101540.81;5020043;28;20040;-89
2021/11/04 01:32:43;;;;;;;10.05;1.70;;;;;;;3.84;100.00;101543.38;5035734;28;20391;-85
2021/11/04 01:35:09;;;;;;;10.95;2.45;;;;;;;3.79;100.00;101529.56;5019887;28;20125;-87
2021/11/04 01:37:35;;;;;;;6.88;1.23;;;;;;;3.85;100.00;101542.38;5036031;28;20033;-86
2021/11/04 01:40:01;;;;;;;10.00;2.00;;;;;;;3.88;100.00;101541.31;5035913;28;20376;-86
2021/11/04 01:42:26;;;;;;;9.77;1.90;;;;;;;3.84;100.00;101537.19;5019517;28;20040;-84
2021/11/04 01:44:52;;;;;;;7.32;1.40;;;;;;;3.68;100.00;101532.16;5069018;28;20025;-84
2021/11/04 01:47:18;;;;;;;9.32;1.67;;;;;;;3.63;100.00;101544.94;5035650;28;20048;-89
2021/11/04 01:49:43;;;;;;;13.35;2.08;;;;;;;3.60;100.00;101555.78;5019238;28;20037;-88
2021/11/04 01:52:11;;;;;;;9.00;2.15;;;;;;;3.60;100.00;101555.78;5051815;28;20043;-88
2021/11/04 01:54:37;;;;;;;4.05;1.20;;;;;;;3.57;100.00;101548.88;5035407;28;20423;-85
2021/11/04 01:57:03;;;;;;;4.35;1.13;;;;;;;3.63;100.00;101543.13;5018813;28;20079;-90
2021/11/04 01:59:29;;;;;;;13.68;1.70;;;;;;;3.60;100.00;101545.13;5018978;28;20474;-88
2021/11/04 02:02:02;;;;;;;10.48;2.47;;;;;;;3.56;100.00;101546.34;5035062;28;20044;-89
2021/11/04 02:04:52;;;;;;;6.97;1.42;;;;;;;3.44;100.00;101548.06;5018784;28;20391;-88
2021/11/04 02:07:52;;;;;;;8.75;1.73;;;;;;;3.28;100.00;101553.63;5018337;28;20482;-88
2021/11/04 02:10:48;;;;;;;5.70;1.83;;;;;;;3.21;100.00;101544.41;5018475;28;20499;-88
2021/11/04 02:13:26;;;;;;;11.40;1.73;;;;;;;3.30;100.00;101544.56;5018476;28;20294;-87
2021/11/04 02:15:55;;;;;;;7.03;1.27;;;;;;;3.34;100.00;101550.53;5018433;28;20072;-89
2021/11/04 02:18:22;;;;;;;6.82;1.33;;;;;;;3.37;100.00;101550.31;5051198;28;20061;-87
2021/11/04 02:20:57;;;;;;;10.20;1.70;;;;;;;3.37;100.00;101552.13;5034487;28;20495;-87
2021/11/04 02:23:35;;;;;;;3.65;1.23;;;;;;;3.29;100.00;101547.34;5034750;28;20021;-89
2021/11/04 02:26:03;;;;;;;9.20;1.60;;;;;;;3.35;100.00;101568.19;5034736;28;20029;-89
2021/11/04 02:28:29;;;;;;;9.35;1.17;;;;;;;3.41;100.00;101562.41;5050974;28;20036;-87
2021/11/04 02:30:55;;;;;;;7.82;1.40;;;;;;;3.53;100.00;101569.53;5051286;28;20029;-89
2021/11/04 02:33:22;;;;;;;10.18;1.52;;;;;;;3.45;100.00;101557.75;5067625;28;20036;-89
2021/11/04 02:35:51;;;;;;;3.53;0.98;;;;;;;3.48;100.00;101561.03;5018337;28;20133;-86
2021/11/04 02:38:22;;;;;;;6.43;1.65;;;;;;;3.53;100.00;101561.53;5034806;28;20391;-87
2021/11/04 02:40:48;;;;;;;13.13;2.15;;;;;;;3.48;100.00;101565.50;5018229;28;20033;-86
2021/11/04 02:43:15;;;;;;;5.93;1.60;;;;;;;3.42;100.00;101568.59;5050818;28;20083;-88
2021/11/04 02:45:41;;;;;;;4.00;1.13;;;;;;;3.42;100.00;101560.63;5034098;28;20033;-87
2021/11/04 02:48:08;;;;;;;6.50;1.00;;;;;;;3.40;100.00;101551.91;5050650;28;20025;-88
2021/11/04 02:50:34;;;;;;;13.82;2.13;;;;;;;3.41;100.00;101561.56;5017920;28;20033;-87
2021/11/04 02:52:59;;;;;;;12.40;2.22;;;;;;;3.48;100.00;101574.31;5034060;28;20140;-89
2021/11/04 02:55:33;;;;;;;6.25;1.95;;;;;;;3.49;100.00;101575.16;5034163;28;20127;-89
2021/11/04 02:58:02;;;;;;;;;;;;;;;3.48;100.00;101574.31;5017928;28;20040;-88
2021/11/04 03:00:27;;;;;;;11.50;1.30;;;;;;;3.46;100.00;101583.34;5084143;28;20379;-87
2021/11/04 03:02:53;;;;;;;8.02;1.30;;;;;;;3.35;100.00;101576.16;5017591;28;20338;-87
2021/11/04 03:05:18;;;;;;;6.10;1.10;;;;;;;3.33;100.00;101585.19;5034130;28;20029;-86
2021/11/04 03:07:45;;;;;;;13.43;1.52;;;;;;;3.18;100.00;101581.81;5017545;28;20033;-86
2021/11/04 03:10:11;;;;;;;8.02;1.67;;;;;;;3.05;100.00;101590.66;5017608;28;20025;-87
2021/11/04 03:12:36;;;;;;;9.27;1.65;;;;;;;2.86;100.00;101587.56;5050527;28;20041;-88
2021/11/04 03:15:03;;;;;;;10.70;1.55;;;;;;;2.63;100.00;101589.97;5033735;28;20089;-87
2021/11/04 03:17:29;;;;;;;7.60;1.73;;;;;;;2.53;100.00;101591.53;5033950;28;20037;-89
2021/11/04 03:19:54;;;;;;;9.98;1.40;;;;;;;2.42;100.00;101594.94;5033874;28;20104;-88
2021/11/04 03:22:21;;;;;;;10.13;1.92;;;;;;;2.32;100.00;101596.47;5033953;28;20103;-89
2021/11/04 03:24:46;;;;;;;14.65;1.67;;;;;;;2.24;100.00;101592.66;5017167;28;20040;-88
2021/11/04 03:27:13;;;;;;;6.25;1.00;;;;;;;2.19;100.00;101588.47;5033656;28;20029;-87
2021/11/04 03:29:40;;;;;;;6.10;2.05;;;;;;;2.19;100.00;101591.13;5033339;28;20487;-89
2021/11/04 03:32:10;;;;;;;13.60;2.22;;;;;;;2.15;100.00;101597.59;5017422;28;20048;-87
2021/11/04 03:34:37;;;;;;;12.85;1.50;;;;;;;2.10;100.00;101586.44;5017317;28;20132;-88
2021/11/04 03:37:05;;;;;;;5.45;1.50;;;;;;;2.08;100.00;101590.16;5033620;28;20033;-85
2021/11/04 03:39:31;;;;;;;6.72;1.40;;;;;;;1.99;100.00;101578.34;5033622;28;20123;-88
2021/11/04 03:41:58;;;;;;;11.48;2.47;;;;;;;1.99;100.00;101581.00;5033425;28;20060;-88
2021/11/04 03:44:24;;;;;;;7.82;1.35;;;;;;;2.05;100.00;101585.91;5017225;28;20107;-87
2021/11/04 03:46:51;;;;;;;13.23;1.55;;;;;;;2.02;100.00;101585.25;5017266;28;20127;-89
2021/11/04 03:49:18;;;;;;;9.07;1.48;;;;;;;2.18;100.00;101597.41;5050016;28;20074;-89
2021/11/04 03:51:47;;;;;;;10.07;1.60;;;;;;;2.18;100.00;101601.88;5033229;28;20058;-87
2021/11/04 03:54:13;;;;;;;7.50;1.27;;;;;;;2.20;100.00;101592.84;5017295;28;20033;-87
2021/11/04 03:56:39;;;;;;;10.10;1.88;;;;;;;2.28;100.00;101589.69;5033379;28;20594;-88
2021/11/04 03:59:05;;;;;;;5.20;1.75;;;;;;;2.35;100.00;101579.50;5033338;28;20386;-88
2021/11/04 04:01:32;;;;;;;5.50;1.17;;;;;;;2.62;100.00;101592.75;5033296;28;20029;-88
2021/11/04 04:03:58;;;;;;;6.95;2.22;;;;;;;2.75;100.00;101592.75;5017114;28;20029;-90
2021/11/04 04:06:24;;;;;;;6.88;1.25;;;;;;;2.87;100.00;101589.25;5017011;28;20029;-87
2021/11/04 04:08:51;;;;;;;7.25;1.52;;;;;;;3.05;100.00;101611.91;5016559;28;20025;-89
2021/11/04 04:11:16;;;;;;;9.98;1.45;;;;;;;3.09;100.00;101602.75;5033048;28;20475;-89
2021/11/04 04:13:42;;;;;;;6.57;1.02;;;;;;;3.17;100.00;101610.19;5033350;28;20041;-90
2021/11/04 04:16:08;;;;;;;3.42;1.02;;;;;;;3.18;100.00;101616.38;5033082;28;20043;-89
2021/11/04 04:18:33;;;;;;;6.55;1.10;;;;;;;3.08;100.00;101602.88;5033255;28;20054;-87
2021/11/04 04:20:59;;;;;;;7.82;1.38;;;;;;;3.16;100.00;101608.50;5033072;28;20467;-85
2021/11/04 04:23:25;;;;;;;6.10;1.00;;;;;;;3.23;100.00;101606.28;5016677;28;20433;-87
2021/11/04 04:25:50;;;;;;;2.33;0.95;;;;;;;3.18;100.00;101597.78;5016849;28;20037;-87
2021/11/04 04:28:17;;;;;;;8.43;1.27;;;;;;;3.27;100.00;101603.28;5032790;28;20044;-89
2021/11/04 04:30:42;;;;;;;10.25;1.55;;;;;;;3.37;100.00;101614.13;5016690;28;20419;-90
2021/11/04 04:33:08;;;;;;;13.20;2.63;;;;;;;3.38;100.00;101607.81;5033107;28;20068;-89
2021/11/04 04:35:34;;;;;;;5.88;1.20;;;;;;;3.37;100.00;101619.44;5032805;28;20033;-86
2021/11/04 04:37:59;;;;;;;5.35;1.40;;;;;;;3.33;100.00;101609.13;5036354;28;20471;-90
2021/11/04 04:40:25;;;;;;;7.47;1.30;;;;;;;3.37;100.00;101622.09;5020333;28;20036;-87
2021/11/04 04:42:51;;;;;;;6.60;1.00;;;;;;;3.29;100.00;101617.31;5036837;28;20031;-89
2021/11/04 04:45:16;;;;;;;9.60;1.38;;;;;;;3.42;100.00;101630.59;5020347;28;20129;-88
2021/11/04 04:47:42;;;;;;;7.53;1.30;;;;;;;3.47;100.00;101628.47;5036500;28;20383;-87
2021/11/04 04:50:09;;;;;;;10.55;1.33;;;;;;;3.38;100.00;101612.31;5054048;28;20025;-89
2021/11/04 04:52:34;;;;;;;8.18;1.20;;;;;;;3.43;100.00;101629.63;5020082;28;20037;-87
2021/11/04 04:55:00;;;;;;;6.35;1.20;;;;;;;3.45;100.00;101632.19;5036584;28;20047;-86
2021/11/04 04:57:26;;;;;;;11.50;1.70;;;;;;;3.53;100.00;101627.19;5052911;28;20035;-86
2021/11/04 04:59:55;;;;;;;7.70;1.23;;;;;;;3.46;100.00;101618.75;5036402;28;20099;-87
2021/11/04 05:02:22;;;;;;;2.00;1.13;;;;;;;3.55;100.00;101633.25;5036317;28;20032;-86
2021/11/04 05:04:48;;;;;;;4.65;0.80;;;;;;;3.64;100.00;101635.22;5054047;28;20029;-88
2021/11/04 05:07:14;;;;;;;5.97;1.23;;;;;;;3.70;100.00;101642.75;5019557;28;20060;-88
2021/11/04 05:09:40;;;;;;;7.47;1.48;;;;;;;3.67;100.00;101642.13;5052897;28;20128;-86
2021/11/04 05:12:06;;;;;;;5.40;1.17;;;;;;;3.63;100.00;101638.88;5035937;28;20028;-88
2021/11/04 05:14:31;;;;;;;3.67;0.90;;;;;;;3.71;100.00;101643.63;5052897;28;20037;-87
2021/11/04 05:16:57;;;;;;;9.02;0.95;;;;;;;3.64;100.00;101642.38;5035664;28;20467;-89
2021/11/04 05:19:22;;;;;;;5.07;1.25;;;;;;;3.64;100.00;101648.53;5035931;28;20455;-87
2021/11/04 05:21:48;;;;;;;4.00;0.90;;;;;;;3.69;100.00;101649.06;5035480;28;20086;-86
2021/11/04 05:24:14;;;;;;;6.15;1.60;;;;;;;3.75;100.00;101647.75;5035902;28;20033;-89
2021/11/04 05:26:39;;;;;;;10.95;1.25;;;;;;;3.77;100.00;101651.16;5052215;28;20115;-88
2021/11/04 05:29:05;;;;;;;8.52;1.80;;;;;;;3.79;100.00;101649.25;5052506;28;20307;-88
2021/11/04 05:31:32;;;;;;;9.52;1.00;;;;;;;3.79;100.00;101648.41;5052313;28;20360;-84
2021/11/04 05:33:57;;;;;;;7.75;1.00;;;;;;;3.79;100.00;101659.91;5035606;28;20040;-86
2021/11/04 05:36:23;;;;;;;4.68;1.00;;;;;;;3.78;100.00;101660.84;5051650;28;20037;-88
2021/11/04 05:38:50;;;;;;;8.20;1.17;;;;;;;3.77;100.00;101672.44;5035775;28;20044;-86
2021/11/04 05:41:16;;;;;;;6.15;0.82;;;;;;;3.70;100.00;101668.50;5019194;28;20493;-87
2021/11/04 05:43:41;;;;;;;7.50;1.30;;;;;;;3.60;100.00;101670.13;5051890;28;20025;-88
2021/11/04 05:46:07;;;;;;;7.60;1.40;;;;;;;3.49;100.00;101674.41;5035294;28;20538;-88
2021/11/04 05:48:32;;;;;;;3.70;1.10;;;;;;;3.48;100.00;101680.66;5035028;28;20124;-87
2021/11/04 05:50:58;;;;;;;2.72;0.70;;;;;;;3.43;100.00;101674.81;5035261;28;20467;-89
2021/11/04 05:53:24;;;;;;;5.30;1.08;;;;;;;3.22;100.00;101668.34;5035400;28;20037;-86
2021/11/04 05:55:51;;;;;;;4.22;0.70;;;;;;;3.16;100.00;101674.09;5019032;28;20059;-87
2021/11/04 05:58:17;;;;;;;5.57;1.00;;;;;;;3.13;100.00;101676.97;5018810;28;20071;-89
2021/11/04 06:00:43;;;;;;;7.20;1.10;;;;;;;3.12;100.00;101677.91;5035254;28;20104;-88
2021/11/04 06:03:11;;;;;;;16.23;1.15;;;;;;;3.07;100.00;101673.75;5034960;28;20372;-86
2021/11/04 06:05:36;;;;;;;4.45;0.80;;;;;;;3.18;100.00;101678.34;5035143;28;20029;-87
2021/11/04 06:08:02;;;;;;;11.98;1.20;;;;;;;3.08;100.00;101672.78;5051384;28;20032;-87
2021/11/04 06:10:28;;;;;;;1.80;0.90;;;;;;;3.19;100.00;101693.31;5018736;28;20495;-86
2021/11/04 06:12:53;;;;;;;3.15;1.05;;;;;;;3.21;100.00;101688.75;5018537;28;20039;-89
2021/11/04 06:15:19;;;;;;;3.17;0.65;;;;;;;3.26;100.00;101691.94;5034870;28;20479;-89
2021/11/04 06:17:44;;;;;;;4.45;0.57;;;;;;;3.15;100.00;101677.69;5034689;28;20033;-87
2021/11/04 06:20:10;;;;;;;2.83;0.90;;;;;;;3.27;100.00;101698.13;5018468;28;20029;-88
2021/11/04 06:22:36;;;;;;;6.22;0.70;;;;;;;3.23;100.00;101696.63;5034649;28;20025;-87
2021/11/04 06:25:03;;;;;;;5.35;0.88;;;;;;;3.09;100.00;101679.81;5034984;28;20036;-87
2021/11/04 06:27:29;;;;;;;1.95;0.60;;;;;;;3.19;100.00;101703.94;5034640;28;20079;-88
2021/11/04 06:29:55;;;;;;;1.25;0.98;;;;;;;3.11;100.00;101689.50;5051332;28;20033;-89
2021/11/04 06:32:21;;;;;;;2.45;1.38;;;;;;;3.19;100.00;101703.94;5034607;28;20516;-87
2021/11/04 06:34:47;;;;;;;7.68;1.13;;;;;;;3.12;100.00;101693.84;5018235;28;20095;-87
2021/11/04 06:37:13;;;;;;;1.27;0.70;;;;;;;3.06;100.00;101689.78;5018180;28;20025;-87
2021/11/04 06:39:38;;;;;;;2.60;0.70;;;;;;;3.23;100.00;101709.94;5018230;28;20119;-84
2021/11/04 06:42:04;;;;;;;2.30;0.50;;;;;;;3.19;100.00;101697.78;5050835;28;20540;-87
2021/11/04 06:44:30;;;;;;;2.45;0.70;;;;;;;3.23;100.00;101712.59;5050716;28;20028;-89
2021/11/04 06:47:00;;;;;;;3.33;0.80;;;;;;;3.31;100.00;101715.56;5050675;28;20033;-89
2021/11/04 06:49:27;;;;;;;8.57;1.20;;;;;;;3.21;100.00;101709.19;5051743;28;20029;-85
2021/11/04 06:51:55;;;;;;;5.38;0.80;;;;;;;3.14;100.00;101714.03;5018217;28;20032;-88
2021/11/04 06:54:24;;;;;;;6.18;0.85;;;;;;;3.12;100.00;101715.94;5017795;28;20033;-90
2021/11/04 06:56:50;;;;;;;4.93;0.77;;;;;;;3.11;100.00;101716.91;5017679;28;20049;-85
2021/11/04 06:59:26;;;;;;;2.20;0.68;;;;;;;3.01;100.00;101716.66;5050112;28;20041;-86
2021/11/04 07:01:51;;;;;;;3.30;0.50;;;;;;;3.01;100.00;101729.09;5017770;28;20125;-90
2021/11/04 07:04:23;;;;;;;7.22;1.33;;;;;;;2.91;100.00;101707.66;5050757;28;20127;-86
2021/11/04 07:06:59;;;;;;;5.20;0.63;;;;;;;3.00;100.00;101724.75;5050703;28;20120;-87
2021/11/04 07:09:26;;;;;;;3.30;0.80;;;;;;;2.94;100.00;101734.00;5035199;28;20039;-86
2021/11/04 07:11:52;;;;;;;4.05;0.80;;;;;;;2.89;100.00;101725.47;5017785;28;20041;-88
2021/11/04 07:14:18;;;;;;;3.55;0.80;;;;;;;2.93;100.00;101734.94;5033878;28;20039;-88
2021/11/04 07:16:46;;;;;;;5.05;0.88;;;;;;;2.88;100.00;101728.22;5017578;28;20114;-88
2021/11/04 07:19:12;;;;;;;3.55;0.98;;;;;;;2.90;100.00;101735.16;5033731;28;20036;-87
2021/11/04 07:21:43;;;;;;;6.20;2.15;;;;;;;3.00;100.00;101749.53;5017422;28;20049;-89
2021/11/04 07:24:13;;;;;;;2.83;0.90;;;;;;;2.99;100.00;101746.94;5050174;28;20325;-90
2021/11/04 07:26:41;;;;;;;3.47;1.13;;;;;;;2.96;100.00;101744.50;5033816;28;20033;-87
2021/11/04 07:29:09;;;;;;;3.47;1.30;;;;;;;3.00;100.00;101754.84;5016585;28;20463;-87
2021/11/04 07:31:37;;;;;;;1.33;0.90;;;;;;;2.97;100.00;101759.50;5033971;28;20033;-86
2021/11/04 07:34:05;;;;;;;3.08;0.77;;;;;;;2.89;100.00;101751.19;5016933;28;20063;-88
2021/11/04 07:36:36;;;;;;;9.98;1.20;;;;;;;2.83;100.00;101749.78;5017135;28;20035;-88
2021/11/04 07:39:03;;;;;;;3.15;0.73;;;;;;;2.76;100.00;101753.81;5050327;28;20063;-89
2021/11/04 07:41:33;;;;;;;8.93;1.98;;;;;;;2.83;100.00;101755.97;5033257;28;20585;-86
2021/11/04 07:43:59;;;;;;;3.83;0.70;;;;;;;2.84;100.00;101760.31;5050339;28;20040;-91
2021/11/04 07:46:27;;;;;;;1.70;0.63;;;;;;;2.68;100.00;101748.16;5050333;28;20040;-86
2021/11/04 07:48:53;;;;;;;3.65;0.75;;;;;;;2.83;100.00;101769.25;5049900;28;20029;-86
2021/11/04 07:51:19;;;;;;;1.33;1.25;;;;;;;2.74;100.00;101748.59;5033754;28;20033;-85
2021/11/04 07:53:44;;;;;;;4.13;0.68;;;;;;;2.82;100.00;101767.53;5017000;28;20029;-89
2021/11/04 07:56:11;;;;;;;6.50;1.05;;;;;;;2.76;100.00;101752.00;5050096;28;20418;-88
2021/11/04 07:58:37;;;;;;;5.97;0.90;;;;;;;2.94;100.00;101773.84;5017408;28;20033;-85
2021/11/04 08:01:04;;;;;;;1.98;0.68;;;;;;;3.05;100.00;101773.97;5033145;28;20033;-85
2021/11/04 08:03:29;;;;;;;7.85;1.20;;;;;;;3.22;100.00;101775.50;5017230;28;20039;-89
2021/11/04 08:05:55;;;;;;;0.82;0.60;;;;;;;3.44;100.00;101777.56;5033173;28;20032;-88
2021/11/04 08:08:21;;;;;;;3.85;1.30;;;;;;;3.59;100.00;101772.16;5016628;28;20032;-87
2021/11/04 08:10:47;;;;;;;4.28;1.00;;;;;;;3.69;100.00;101768.75;5051537;28;20033;-87
2021/11/04 08:13:13;;;;;;;4.78;0.63;;;;;;;3.83;100.00;101778.41;5037341;28;20482;-85
2021/11/04 08:15:40;;;;;;;3.95;0.77;;;;;;;3.77;100.00;101780.66;5020673;28;20376;-88
2021/11/04 08:18:10;;;;;;;4.75;1.00;;;;;;;3.67;100.00;101775.13;5020575;28;20202;-86
2021/11/04 08:20:36;;;;;;;6.07;1.20;;;;;;;3.63;100.00;101778.97;5020476;28;20037;-85
2021/11/04 08:23:08;;;;;;;6.05;1.40;;;;;;;3.69;100.00;101783.84;5036928;28;20353;-89
2021/11/04 08:25:33;;;;;;;2.83;0.90;;;;;;;3.61;100.00;101784.38;5053524;28;20020;-90
2021/11/04 08:27:59;;;;;;;4.90;1.20;;;;;;;3.73;100.00;101804.84;5036798;28;20543;-90
2021/11/04 08:30:25;;;;;;;2.97;0.98;;;;;;;3.81;100.00;101800.75;5020249;28;20487;-88
2021/11/04 08:32:51;;;;;;;12.45;1.55;;;;;;;3.83;100.00;101809.50;5036804;28;20040;-86
2021/11/04 08:35:16;;;;;;;2.38;0.85;;;;;;;3.96;100.00;101821.84;5020424;28;20044;-88
2021/11/04 08:37:42;;;;;;;5.47;1.45;;;;;;;4.04;100.00;101820.47;5053179;28;20083;-91
2021/11/04 08:40:09;;;;;;;6.15;1.10;;;;;;;4.09;100.00;101823.66;5053294;28;20025;-86
2021/11/04 08:42:35;;;;;;;4.30;1.40;;;;;;;4.15;100.00;101826.75;5053544;28;20056;-88
2021/11/04 08:45:00;;;;;;;5.25;0.85;;;;;;;4.13;100.00;101810.03;5053074;28;20032;-87
2021/11/04 08:47:29;;;;;;;4.88;1.25;;;;;;;4.27;100.00;101825.03;5052978;28;20029;-84
2021/11/04 08:49:55;;;;;;;1.80;0.70;;;;;;;4.27;100.00;101822.34;5036615;28;20230;-87
2021/11/04 08:52:26;;;;;;;2.75;0.93;;;;;;;4.35;100.00;101820.00;5020160;28;20406;-88
2021/11/04 08:54:52;;;;;;;7.35;0.75;;;;;;;4.51;99.93;101840.22;5020120;28;20029;-90
2021/11/04 08:57:18;;;;;;;4.65;1.83;;;;;;;4.59;100.00;101838.69;5036672;28;20082;-88
2021/11/04 08:59:44;;;;;;;1.02;0.82;;;;;;;4.51;100.00;101841.06;5036383;28;20463;-89
2021/11/04 09:02:14;;;;;;;4.70;1.13;;;;;;;4.52;100.00;101837.41;5036333;28;20163;-86
2021/11/04 09:04:42;;;;;;;6.32;1.20;;;;;;;4.62;99.72;101838.47;5035966;28;20037;-87
2021/11/04 09:07:16;;;;;;;6.78;1.10;;;;;;;4.74;99.56;101842.06;5036400;28;20079;-88
2021/11/04 09:09:42;;;;;;;5.68;1.20;;;;;;;4.80;99.02;101841.63;5020016;28;20087;-88
2021/11/04 09:12:08;;;;;;;1.85;1.13;;;;;;;4.88;98.96;101853.53;5019897;28;20033;-90
2021/11/04 09:14:35;;;;;;;2.05;0.70;;;;;;;4.96;98.74;101857.34;5036039;28;20474;-90
2021/11/04 09:17:01;;;;;;;6.20;0.98;;;;;;;5.18;98.85;101861.94;5019203;28;20502;-87
2021/11/04 09:19:27;;;;;;;5.43;0.90;;;;;;;5.31;98.28;101859.19;5052490;28;20040;-88
2021/11/04 09:21:52;;;;;;;2.47;0.82;;;;;;;5.39;97.93;101850.63;5051807;28;20024;-90
2021/11/04 09:24:18;;;;;;;5.40;0.80;;;;;;;5.50;97.55;101856.88;5052563;28;20033;-88
2021/11/04 09:26:44;;;;;;;0.93;0.63;;;;;;;5.64;97.12;101858.50;5036000;28;20037;-88
2021/11/04 09:29:10;;;;;;;3.10;0.90;;;;;;;5.67;96.45;101855.59;5035664;28;20123;-90
2021/11/04 09:31:36;;;;;;;4.07;0.80;;;;;;;5.79;96.60;101860.94;5018979;28;20083;-89
2021/11/04 09:34:02;;;;;;;1.92;1.13;;;;;;;5.81;96.14;101869.69;5052240;28;20036;-89
2021/11/04 09:36:29;;;;;;;2.22;0.70;;;;;;;5.80;96.52;101865.34;5035477;28;20033;-88
2021/11/04 09:38:56;;;;;;;1.65;1.17;;;;;;;5.93;95.78;101860.75;5035664;28;20033;-87
2021/11/04 09:41:22;;;;;;;3.75;1.00;;;;;;;6.03;95.49;101872.44;5035476;28;20029;-89
2021/11/04 09:43:47;;;;;;;2.55;0.85;;;;;;;6.15;95.43;101879.50;5052116;28;20459;-90
2021/11/04 09:46:14;;;;;;;2.08;0.80;;;;;;;6.24;94.89;101874.41;5035541;28;20029;-90
2021/11/04 09:48:40;;;;;;;4.47;1.15;;;;;;;6.41;94.48;101876.59;5035102;28;20494;-89
2021/11/04 09:51:07;;;;;;;9.07;0.98;;;;;;;6.45;94.93;101866.50;5051827;28;20025;-86
2021/11/04 09:53:32;;;;;;;4.80;0.90;;;;;;;6.58;94.38;101864.56;5035373;28;20107;-85
2021/11/04 09:56:03;;;;;;;0.80;0.80;;;;;;;6.77;93.88;101870.16;5035119;28;20100;-86
2021/11/04 09:58:29;;;;;;;3.88;0.63;;;;;;;6.97;93.47;101875.69;5019125;28;20487;-88
2021/11/04 10:00:55;;;;;;;5.88;0.70;;;;;;;7.09;92.61;101882.69;5018950;28;20033;-89
2021/11/04 10:03:21;;;;;;;6.93;1.00;;;;;;;7.21;91.51;101870.16;5034882;28;20047;-86
2021/11/04 10:05:50;;;;;;;3.38;1.17;;;;;;;7.36;91.21;101874.25;5051794;28;20060;-88
2021/11/04 10:08:32;;;;;;;1.65;0.52;;;;;;;7.44;89.82;101885.16;5034982;28;20036;-91
2021/11/04 10:11:10;;;;;;;3.60;1.20;;;;;;;7.47;89.78;101879.53;5018774;28;20029;-84
2021/11/04 10:13:35;;;;;;;1.95;0.77;;;;;;;7.50;89.56;101873.09;5018698;28;20029;-88
2021/11/04 10:16:01;;;;;;;3.45;0.80;;;;;;;7.54;89.17;101874.53;5051456;28;20402;-89
2021/11/04 10:18:27;;;;;;;4.03;0.77;;;;;;;7.58;89.04;101875.13;5051357;28;20033;-87
2021/11/04 10:20:53;;;;;;;3.38;0.70;;;;;;;7.63;88.32;101878.25;5018355;28;20035;-84
2021/11/04 10:23:18;;;;;;;1.58;0.60;;;;;;;7.67;89.01;101880.56;5052531;28;20028;-90
2021/11/04 10:25:44;;;;;;;7.72;1.25;;;;;;;7.78;88.61;101889.50;5034605;28;20045;-88
2021/11/04 10:28:21;;;;;;;5.45;0.90;;;;;;;7.82;87.76;101893.63;5051040;28;20563;-86
2021/11/04 10:30:47;;;;;;;3.45;0.70;;;;;;;7.90;87.73;101894.66;5052423;28;20529;-90
2021/11/04 10:33:20;;;;;;;2.72;0.80;;;;;;;7.95;87.04;101896.09;5017711;28;20037;-89
2021/11/04 10:35:51;;;;;;;3.88;1.00;;;;;;;8.02;87.36;101894.59;5034352;28;20519;-90
2021/11/04 10:38:17;;;;;;;3.38;0.90;;;;;;;8.25;86.93;101898.81;5034638;28;20040;-89
2021/11/04 10:40:43;;;;;;;3.55;0.80;;;;;;;8.41;85.49;101898.38;5017768;28;20048;-86
2021/11/04 10:43:09;;;;;;;2.20;1.00;;;;;;;8.70;84.49;101903.84;5050820;28;20094;-89
2021/11/04 10:45:34;;;;;;;2.83;0.98;;;;;;;8.97;83.43;101903.25;5018039;28;20036;-87
2021/11/04 10:48:21;;;;;;;2.42;0.93;;;;;;;9.52;83.06;101902.75;5034079;28;20037;-90
2021/11/04 10:50:47;;;;;;;3.20;0.93;;;;;;;9.96;80.64;101903.16;5017192;28;20311;-88
2021/11/04 10:53:20;;;;;;;18.17;1.35;;;;;;;10.28;79.83;101900.13;5033644;28;20029;-89
2021/11/04 10:55:49;;;;;;;2.42;0.90;;;;;;;10.86;77.69;101912.50;5034855;28;20029;-87
2021/11/04 10:58:28;;;;;;;4.57;0.80;;;;;;;11.26;76.34;101919.34;5034057;28;20037;-88
2021/11/04 11:00:55;;;;;;;5.10;1.20;;;;;;;11.31;75.39;101919.75;5034251;28;20112;-87
2021/11/04 11:03:22;;;;;;;2.10;0.65;;;;;;;11.68;72.66;101926.84;5034257;28;20067;-89
2021/11/04 11:05:48;;;;;;;1.63;1.25;;;;;;;11.80;71.36;101920.22;5050370;28;20029;-84
2021/11/04 11:08:14;;;;;;;2.53;1.17;;;;;;;12.08;69.64;101920.97;5050382;28;20489;-88
2021/11/04 11:10:44;;;;;;;4.97;0.93;;;;;;;12.40;69.30;101926.75;5050450;28;20029;-89
2021/11/04 11:13:10;;;;;;;5.82;0.57;;;;;;;12.48;67.72;101913.31;5033991;28;20466;-87
2021/11/04 11:15:40;;;;;;;1.85;0.65;;;;;;;12.60;66.64;101928.22;5050556;28;20064;-89
2021/11/04 11:18:08;;;;;;;4.38;0.60;;;;;;;12.82;66.13;101928.66;5017246;28;20064;-90
2021/11/04 11:20:34;;;;;;;1.67;0.68;;;;;;;12.07;67.18;101929.22;5034226;28;20071;-86
2021/11/04 11:23:03;;;;;;;2.22;0.80;;;;;;;12.51;65.45;101926.47;5017548;28;20037;-89
2021/11/04 11:25:35;;;;;;;1.00;0.60;;;;;;;12.81;65.17;101929.66;5017644;28;20195;-86